Latest Weather Observations for Esperance

IDW60801

Issued at 4:33 pm WST Saturday 10 December 2016 (issued every 30 minutes, with the page automatically refreshed every 10 minutes)

About weather observations | Map of weather stations | Latest weather observations for WA | Other Formats
Station Details ID: 009789 Name: ESPERANCE Lat: -33.83 Lon: 121.89 Height: 25.0 m
Data from the previous 72 hours. | See also: Recent months at Esperance
Date/Time
WST
Temp
°C
App
Temp
°C
Dew
Point
°C
Rel
Hum
%
Delta-T
°C
Wind Press
QNH
hPa
Press
MSL
hPa
Rain since
9am
mm
Dir  Spd
km/h
Gust
km/h
Spd
kts
Gust
kts
10/04:00pm 24.1 19.8 15.5 58 5.2 ESE 32 43 17 23 1013.1 1013.1 0.0
10/03:30pm 24.5 20.2 16.0 59 5.2 ESE 33 46 18 25 1013.5 1013.5 0.0
10/03:00pm 25.0 20.5 15.4 55 5.8 ESE 33 54 18 29 1013.5 1013.5 0.0
10/02:42pm 24.8 20.3 15.3 55 5.7 ESE 33 52 18 28 1013.8 1013.8 0.0
10/02:30pm 25.4 21.1 15.5 54 6.0 ESE 32 46 17 25 1013.9 1013.9 0.0
10/02:00pm 25.8 22.9 16.0 54 6.0 SE 26 37 14 20 1014.3 1014.3 0.0
10/01:30pm 25.4 21.1 15.3 53 6.1 SE 32 43 17 23 1014.7 1014.7 0.0
10/01:00pm 25.5 22.0 14.6 51 6.5 SE 26 37 14 20 1015.0 1015.0 0.0
10/12:30pm 25.5 21.6 15.4 53 6.1 SE 30 39 16 21 1015.5 1015.4 0.0
10/12:00pm 25.6 21.9 14.9 51 6.4 SE 28 37 15 20 1015.6 1015.5 0.0
10/11:30am 26.4 22.9 14.5 48 7.1 SE 26 35 14 19 1016.1 1016.0 0.0
10/11:00am 25.8 22.4 13.8 47 7.1 SSE 24 30 13 16 1016.5 1016.4 0.0
10/10:30am 27.7 24.2 10.2 33 9.8 SSE 19 22 10 12 1017.0 1016.9 0.0
10/10:00am 26.0 22.8 9.9 36 8.9 SE 17 20 9 11 1017.3 1017.2 0.0
10/09:30am 25.6 22.9 10.5 38 8.4 SSE 15 17 8 9 1017.8 1017.7 0.0
10/09:00am 25.3 23.9 10.8 40 8.1 SE 9 13 5 7 1018.2 1018.1 0.0
10/08:30am 24.0 21.9 9.7 40 7.8 NNE 11 17 6 9 1018.4 1018.3 0.0
10/08:00am 22.2 20.3 10.5 47 6.4 NE 11 17 6 9 1018.8 1018.7 0.0
10/07:30am 20.1 17.8 10.5 54 5.2 NE 13 20 7 11 1018.8 1018.7 0.0
10/07:00am 17.8 15.5 10.5 62 3.9 NE 13 19 7 10 1019.1 1019.0 0.0
10/06:30am 16.8 14.5 10.4 66 3.4 E 13 19 7 10 1019.0 1018.9 0.0
10/06:00am 15.6 13.1 9.8 68 3.0 E 13 19 7 10 1019.0 1018.9 0.0
10/05:30am 14.2 12.0 9.5 73 2.4 ESE 11 15 6 8 1019.0 1018.9 0.0
10/05:00am 13.3 11.4 9.1 76 2.1 E 9 13 5 7 1018.7 1018.6 0.0
10/04:30am 13.1 10.8 9.1 77 2.0 E 11 15 6 8 1018.4 1018.3 0.0
10/04:00am 13.3 11.0 9.1 76 2.1 E 11 13 6 7 1018.1 1018.0 0.0
10/03:30am 13.2 11.3 9.0 75 2.1 E 9 15 5 8 1017.9 1017.8 0.0
10/03:00am 13.6 11.3 9.1 74 2.3 ENE 11 15 6 8 1017.8 1017.7 0.0
10/02:30am 13.7 12.3 9.6 76 2.1 E 7 9 4 5 1017.6 1017.5 0.0
10/02:00am 14.5 12.7 9.6 72 2.5 E 9 13 5 7 1017.5 1017.4 0.0
10/01:30am 15.1 12.8 9.0 67 3.1 E 11 13 6 7 1017.5 1017.4 0.0
10/01:00am 15.4 13.6 9.4 67 3.1 E 9 15 5 8 1017.7 1017.6 0.0
10/12:30am 15.9 13.7 9.3 65 3.4 E 11 17 6 9 1017.9 1017.8 0.0
10/12:00am 16.4 13.6 9.9 65 3.4 NE 15 20 8 11 1017.9 1017.8 0.0
 
Date/Time
WST
Temp
°C
App
Temp
°C
Dew
Point
°C
Rel
Hum
%
Delta-T
°C
Wind Press
QNH
hPa
Press
MSL
hPa
Rain since
9am
mm
Dir  Spd
km/h
Gust
km/h
Spd
kts
Gust
kts
09/11:30pm 16.8 14.8 10.2 65 3.5 ENE 11 17 6 9 1018.1 1018.0 0.0
09/11:00pm 17.3 15.0 10.3 63 3.7 NE 13 22 7 12 1018.3 1018.2 0.0
09/10:30pm 17.8 15.9 10.5 62 3.9 ENE 11 19 6 10 1018.5 1018.4 0.0
09/10:00pm 17.8 16.6 11.6 67 3.4 ENE 9 15 5 8 1018.4 1018.3 0.0
09/09:30pm 17.8 16.6 12.8 72 2.8 E 11 17 6 9 1018.3 1018.2 0.0
09/09:00pm 18.5 17.2 13.6 73 2.8 ESE 13 19 7 10 1018.2 1018.1 0.0
09/08:30pm 18.6 17.2 13.3 71 3.0 E 13 19 7 10 1018.0 1017.9 0.0
09/08:00pm 18.7 17.5 14.0 74 2.7 E 13 19 7 10 1017.8 1017.7 0.0
09/07:30pm 19.2 17.4 14.4 74 2.8 ESE 17 22 9 12 1017.8 1017.7 0.0
09/07:00pm 19.9 17.8 14.6 71 3.1 ESE 19 24 10 13 1017.4 1017.3 0.0
09/06:30pm 20.7 18.2 14.1 66 3.8 ESE 20 26 11 14 1017.1 1017.0 0.0
09/06:00pm 21.6 18.6 13.6 60 4.6 SE 22 30 12 16 1016.7 1016.6 0.0
09/05:30pm 22.2 19.0 13.1 56 5.2 SE 22 32 12 17 1016.7 1016.6 0.0
09/05:00pm 22.9 20.0 13.0 53 5.7 SE 20 30 11 16 1016.5 1016.4 0.0
09/04:30pm 23.1 19.6 12.2 50 6.2 SE 22 30 12 16 1016.4 1016.3 0.0
09/04:00pm 23.7 19.3 11.6 46 6.8 ESE 26 35 14 19 1016.2 1016.1 0.0
09/03:30pm 23.9 20.2 12.8 49 6.4 SE 24 32 13 17 1016.3 1016.2 0.0
09/03:00pm 23.6 20.4 13.2 52 6.0 SE 22 33 12 18 1016.3 1016.2 0.0
09/02:30pm 23.1 19.4 12.8 52 5.9 SE 24 33 13 18 1016.4 1016.3 0.0
09/02:00pm 24.0 19.5 12.7 49 6.5 SE 28 37 15 20 1016.6 1016.5 0.0
09/01:30pm 23.7 18.6 11.8 47 6.7 SE 30 39 16 21 1016.8 1016.7 0.0
09/01:00pm 24.6 20.3 11.9 45 7.2 SE 26 35 14 19 1017.1 1017.0 0.0
09/12:30pm 24.1 20.0 11.3 44 7.2 SE 24 33 13 18 1017.7 1017.6 0.0
09/12:00pm 22.8 18.2 9.7 43 7.1 SSE 24 30 13 16 1018.1 1018.0 0.0
09/11:30am 22.6 18.3 9.4 43 7.1 SE 22 28 12 15 1018.6 1018.5 0.0
09/11:00am 23.6 19.2 6.4 33 8.8 SSE 19 24 10 13 1019.3 1019.2 0.0
09/10:30am 23.7 19.8 6.9 34 8.7 SSE 17 20 9 11 1019.7 1019.6 0.0
09/10:00am 24.9 22.1 6.8 31 9.4 N 11 17 6 9 1020.0 1019.9 0.0
09/09:30am 22.7 20.3 7.2 36 8.0 N 9 15 5 8 1020.3 1020.2 0.0
09/09:00am 21.2 18.6 7.9 42 6.9 NNE 11 19 6 10 1020.6 1020.5 0.0
09/08:30am 20.2 17.7 8.0 45 6.3 NNE 11 19 6 10 1020.9 1020.8 0.0
09/08:00am 18.5 15.5 7.7 49 5.5 NNE 13 20 7 11 1021.2 1021.1 0.0
09/07:30am 17.2 13.5 8.1 55 4.6 NNE 17 24 9 13 1021.4 1021.3 0.0
09/07:00am 15.1 11.8 7.9 62 3.6 NNE 15 22 8 12 1021.5 1021.4 0.0
09/06:30am 13.4 10.4 7.9 69 2.7 NNE 13 19 7 10 1021.6 1021.5 0.0
09/06:00am 11.3 9.5 7.8 79 1.7 NE 7 11 4 6 1021.7 1021.6 0.0
09/05:30am 10.1 8.0 6.7 79 1.6 ENE 7 11 4 6 1021.7 1021.6 0.0
09/05:00am 9.2 6.7 6.6 84 1.2 ENE 9 13 5 7 1021.6 1021.5 0.0
09/04:30am 8.9 6.0 6.5 85 1.1 ENE 11 13 6 7 1021.4 1021.3 0.0
09/04:00am 9.0 6.1 6.6 85 1.1 ENE 11 13 6 7 1021.5 1021.4 0.0
09/03:30am 9.4 6.5 6.6 83 1.3 ENE 11 13 6 7 1021.4 1021.3 0.0
09/03:00am 9.6 7.1 6.6 81 1.4 ENE 9 11 5 6 1021.5 1021.4 0.0
09/02:30am 9.8 7.4 6.8 81 1.4 ENE 9 13 5 7 1021.6 1021.5 0.0
09/02:00am 10.2 7.3 6.6 78 1.7 ENE 11 13 6 7 1021.7 1021.6 0.0
09/01:30am 10.4 7.9 6.5 77 1.8 ENE 9 13 5 7 1021.7 1021.6 0.0
09/01:00am 10.9 8.4 6.6 75 2.0 E 9 13 5 7 1021.8 1021.7 0.0
09/12:30am 11.2 8.8 6.8 74 2.1 E 9 13 5 7 1021.9 1021.8 0.0
09/12:00am 11.5 9.1 7.1 74 2.1 E 9 13 5 7 1022.0 1021.9 0.0
 
Date/Time
WST
Temp
°C
App
Temp
°C
Dew
Point
°C
Rel
Hum
%
Delta-T
°C
Wind Press
QNH
hPa
Press
MSL
hPa
Rain since
9am
mm
Dir  Spd
km/h
Gust
km/h
Spd
kts
Gust
kts
08/11:30pm 11.7 9.4 7.3 74 2.1 ENE 9 13 5 7 1022.1 1022.0 0.0
08/11:00pm 12.1 9.8 7.6 74 2.2 ENE 9 13 5 7 1022.3 1022.2 0.0
08/10:30pm 12.6 10.0 7.7 72 2.4 ENE 11 15 6 8 1022.6 1022.5 0.0
08/10:00pm 12.9 10.7 7.8 71 2.5 E 9 15 5 8 1022.8 1022.7 0.0
08/09:30pm 13.3 11.1 8.0 70 2.6 E 9 13 5 7 1022.7 1022.6 0.0
08/09:00pm 13.8 11.2 7.9 67 2.9 E 11 15 6 8 1022.8 1022.7 0.0
08/08:30pm 14.8 11.5 8.2 64 3.3 E 15 22 8 12 1022.7 1022.6 0.0
08/08:00pm 15.2 11.0 8.2 63 3.5 ESE 20 33 11 18 1022.7 1022.6 0.0
08/07:30pm 15.3 10.6 7.9 61 3.7 ESE 22 30 12 16 1022.6 1022.5 0.0
08/07:00pm 15.6 11.0 8.2 61 3.7 ESE 22 32 12 17 1022.4 1022.3 0.0
08/06:30pm 16.2 10.8 8.1 58 4.1 SE 26 37 14 20 1022.3 1022.2 0.0
08/06:00pm 16.6 11.1 7.4 54 4.6 SE 26 35 14 19 1022.0 1021.9 0.0
08/05:30pm 16.7 10.9 8.0 56 4.4 SSE 28 35 15 19 1021.8 1021.7 0.0
08/05:00pm 17.1 10.9 7.8 54 4.7 SE 30 35 16 19 1021.7 1021.6 0.0
08/04:30pm 16.8 11.3 7.4 54 4.7 SE 26 35 14 19 1021.6 1021.5 0.0
08/04:00pm 17.3 11.6 6.8 50 5.2 SSE 26 39 14 21 1021.6 1021.5 0.0
08/03:30pm 17.9 12.2 6.6 47 5.6 SSE 26 33 14 18 1021.5 1021.4 0.0
08/03:00pm 17.8 11.7 6.7 48 5.5 SSE 28 37 15 20 1021.4 1021.3 0.0
08/02:30pm 18.7 12.9 6.4 44 6.1 SSE 26 35 14 19 1021.5 1021.4 0.0
08/02:00pm 17.7 12.0 6.8 49 5.4 SSE 26 35 14 19 1021.6 1021.5 0.0
08/01:30pm 18.2 12.7 7.5 49 5.4 SSE 26 35 14 19 1021.8 1021.7 0.0
08/01:00pm 18.3 12.7 7.1 48 5.6 SSE 26 35 14 19 1021.9 1021.8 0.0
08/12:30pm 17.7 12.5 7.1 50 5.3 SSE 24 33 13 18 1022.2 1022.1 0.0
08/12:00pm 18.5 13.1 6.4 45 6.0 SSE 24 32 13 17 1022.5 1022.4 0.0
08/11:30am 18.4 13.8 6.7 46 5.8 SSE 20 26 11 14 1022.8 1022.7 0.0
08/11:00am 18.6 14.1 7.0 46 5.8 SSE 20 28 11 15 1023.0 1022.9 0.0
08/10:30am 18.2 14.2 6.5 46 5.8 SSE 17 24 9 13 1022.9 1022.8 0.0
08/10:00am 17.7 14.3 6.0 46 5.7 SE 13 20 7 11 1023.1 1023.0 0.0
08/09:30am 17.5 13.6 5.5 45 5.8 SE 15 20 8 11 1023.2 1023.1 0.0
08/09:00am 16.8 12.6 5.8 48 5.3 SE 17 24 9 13 1023.1 1023.0 0.0
08/08:30am 16.3 11.8 5.9 50 5.0 SSE 19 26 10 14 1023.1 1023.0 0.0
08/08:00am 16.1 12.8 6.4 52 4.7 SE 13 19 7 10 1022.9 1022.8 0.0
08/07:30am 16.1 11.9 5.9 50 4.9 SSE 17 22 9 12 1022.8 1022.7 0.0
08/07:00am 15.6 11.8 6.0 53 4.6 SSE 15 19 8 10 1022.7 1022.6 0.0
08/06:30am 15.4 12.1 6.3 54 4.4 SSE 13 19 7 10 1022.3 1022.2 0.0
08/06:00am 15.3 10.8 6.2 54 4.4 SSE 19 28 10 15 1021.7 1021.6 0.0
08/05:30am 15.2 10.7 6.3 55 4.3 SSE 19 26 10 14 1021.5 1021.4 0.0
08/05:00am 15.3 11.4 6.9 57 4.1 S 17 20 9 11 1021.3 1021.2 0.0
08/04:30am 15.2 10.7 6.0 54 4.4 SSE 19 28 10 15 1021.0 1020.9 0.0
08/04:00am 15.0 10.8 5.5 53 4.5 SSE 17 22 9 12 1020.9 1020.8 0.0
08/03:30am 14.9 11.0 5.4 53 4.5 S 15 20 8 11 1020.5 1020.4 0.0
08/03:00am 15.2 10.4 5.5 52 4.6 SSE 20 28 11 15 1020.3 1020.2 0.0
08/02:30am 15.3 10.9 7.4 59 3.9 SSE 20 30 11 16 1020.0 1019.9 0.0
08/02:00am 15.5 10.9 6.7 55 4.3 SSE 20 32 11 17 1020.0 1019.9 0.0
08/01:30am 15.3 11.5 5.9 53 4.5 S 15 19 8 10 1020.1 1020.0 0.0
08/01:00am 15.3 11.1 5.9 53 4.5 SSW 17 28 9 15 1020.1 1020.0 0.0
08/12:30am 15.6 11.1 6.8 56 4.3 S 20 32 11 17 1020.1 1020.0 0.0
08/12:00am 15.6 11.6 8.9 64 3.4 S 20 33 11 18 1020.2 1020.1 0.0
 
Date/Time
WST
Temp
°C
App
Temp
°C
Dew
Point
°C
Rel
Hum
%
Delta-T
°C
Wind Press
QNH
hPa
Press
MSL
hPa
Rain since
9am
mm
Dir  Spd
km/h
Gust
km/h
Spd
kts
Gust
kts
07/11:30pm 15.8 11.5 6.8 55 4.4 SSW 19 28 10 15 1020.3 1020.2 0.0
07/11:00pm 15.8 12.6 8.5 62 3.7 S 15 22 8 12 1020.4 1020.3 0.0
07/10:30pm 15.5 11.4 6.2 54 4.5 SSW 17 30 9 16 1020.4 1020.3 0.0
07/10:00pm 15.6 10.9 5.0 49 5.0 SSW 19 32 10 17 1020.5 1020.4 0.0
07/09:30pm 16.0 10.8 7.3 56 4.3 S 24 33 13 18 1020.5 1020.4 0.0
07/09:00pm 15.7 11.2 8.4 62 3.7 SSW 22 35 12 19 1020.3 1020.2 0.0
07/08:30pm 16.0 12.0 8.3 60 3.9 SSW 19 28 10 15 1020.0 1019.9 0.0
07/08:00pm 16.0 11.9 8.5 61 3.8 SSW 20 33 11 18 1019.6 1019.5 0.0
07/07:30pm 15.8 11.3 7.1 56 4.3 SSW 20 35 11 19 1019.3 1019.2 0.0
07/07:00pm 15.9 11.1 7.4 57 4.2 SSW 22 35 12 19 1019.0 1018.9 0.0
07/06:30pm 16.2 11.1 7.6 56 4.3 SSW 24 35 13 19 1018.5 1018.4 0.0
07/06:00pm 16.4 11.5 8.6 60 4.0 SSW 24 37 13 20 1018.1 1018.0 0.0
07/05:30pm 16.9 12.1 8.7 58 4.2 SW 24 37 13 20 1017.5 1017.4 0.0
07/05:00pm 17.0 11.6 7.9 55 4.6 SSW 26 39 14 21 1017.1 1017.0 0.0
07/04:32pm 18.1 12.2 7.4 49 5.4 SSW 28 46 15 25 1016.9 1016.8 0.0

Other Formats:

Comma delimited format used in spreadsheet applications
http://www.bom.gov.au/fwo/IDW60801/IDW60801.94638.axf

JavaScript Object Notation format (JSON) in row-major order
http://www.bom.gov.au/fwo/IDW60801/IDW60801.94638.json